This is the latest recevied weather packets stored in our database for station/object W2JGA. If no packets are shown the sender has not sent any weather packets the latest 1 day(s).
| Time | Temp. | Humidity | Pressure | Rain* | Wind** | Luminosity | Snow |
|---|---|---|---|---|---|---|---|
| 1778033735 | 21.11° C | 38% | 1013.9 hPa | 0 mm | 1.79 m/s, 276° | 0 W/m² | - |
| 1778033432 | 20.56° C | 38% | 1013.9 hPa | 0 mm | 1.79 m/s, 195° | 2 W/m² | - |
| 1778033130 | 21.11° C | 39% | 1013.9 hPa | 0 mm | 2.68 m/s, 312° | 4 W/m² | - |
| 1778032827 | 21.11° C | 39% | 1013.6 hPa | 0 mm | 2.68 m/s, 262° | 7 W/m² | - |
| 1778032525 | 21.11° C | 39% | 1013.6 hPa | 0 mm | 4.02 m/s, 302° | 13 W/m² | - |
| 1778032221 | 21.67° C | 39% | 1013.2 hPa | 0 mm | 2.24 m/s, 322° | 24 W/m² | - |
| 1778031919 | 21.67° C | 39% | 1013.2 hPa | 0 mm | 3.13 m/s, 269° | 35 W/m² | - |
| 1778031615 | 21.67° C | 39% | 1013.2 hPa | 0 mm | 2.24 m/s, 289° | 41 W/m² | - |
| 1778031313 | 21.67° C | 39% | 1013.2 hPa | 0 mm | 3.13 m/s, 301° | 43 W/m² | - |
| 1778031009 | 21.67° C | 39% | 1013.2 hPa | 0 mm | 4.92 m/s, 317° | 58 W/m² | - |
| 1778030705 | 21.67° C | 39% | 1013.2 hPa | 0 mm | 3.13 m/s, 281° | 31 W/m² | - |
| 1778030402 | 21.67° C | 39% | 1013.6 hPa | 0 mm | 2.68 m/s, 254° | 32 W/m² | - |
| 1778030100 | 22.22° C | 39% | 1013.2 hPa | 0 mm | 4.02 m/s, 302° | 35 W/m² | - |
| 1778029796 | 22.22° C | 38% | 1013.2 hPa | 0 mm | 4.92 m/s, 291° | 125 W/m² | - |
| 1778029495 | 22.78° C | 37% | 1012.9 hPa | 0 mm | 2.24 m/s, 309° | 139 W/m² | - |
| 1778029191 | 22.78° C | 35% | 1012.9 hPa | 0 mm | 3.13 m/s, 218° | 153 W/m² | - |
| 1778028889 | 23.33° C | 34% | 1012.9 hPa | 0 mm | 3.58 m/s, 276° | 189 W/m² | - |
| 1778028584 | 22.78° C | 33% | 1012.9 hPa | 0 mm | 4.47 m/s, 281° | 202 W/m² | - |
| 1778028282 | 23.33° C | 33% | 1012.9 hPa | 0 mm | 3.13 m/s, 260° | 228 W/m² | - |
| 1778027978 | 23.33° C | 33% | 1012.9 hPa | 0 mm | 5.36 m/s, 269° | 239 W/m² | - |
| 1778027675 | 23.33° C | 33% | 1012.9 hPa | 0 mm | 3.58 m/s, 308° | 263 W/m² | - |
| 1778027371 | 23.33° C | 34% | 1012.9 hPa | 0 mm | 4.02 m/s, 329° | 274 W/m² | - |
| 1778027067 | 23.33° C | 34% | 1012.9 hPa | 0 mm | 3.58 m/s, 216° | 283 W/m² | - |
| 1778026762 | 23.89° C | 34% | 1012.9 hPa | 0 mm | 4.92 m/s, 259° | 291 W/m² | - |
| 1778026460 | 23.89° C | 34% | 1012.9 hPa | 0 mm | 2.24 m/s, 180° | 310 W/m² | - |
* Rain latest hour (hover to see other rain measurements)
** Current wind speed in m/s (hover to see current wind gust speed)